Time;durP1;ratioP1;P1;durP2;ratioP2;P2;SDS_P1;SDS_P2;PMS_P1;PMS_P2;Temp;Humidity;BMP_temperature;BMP_pressure;BME280_temperature;BME280_humidity;BME280_pressure;Samples;Min_cycle;Max_cycle;Signal;HPM_P1;HPM_P2
2021/12/27 00:02:05;;;;;;;32.30;19.80;;;-0.10;99.90;;;;;;5093378;28;20054;-85
2021/12/27 00:04:31;;;;;;;31.70;19.65;;;;;;;;;;5094313;28;20097;-85
2021/12/27 00:06:57;;;;;;;32.38;20.05;;;;;;;;;;5093446;28;20090;-85
2021/12/27 00:09:23;;;;;;;36.58;20.65;;;;;;;;;;5093159;28;20048;-85
2021/12/27 00:11:49;;;;;;;33.72;19.77;;;;;;;;;;5094338;28;20070;-85
2021/12/27 00:14:15;;;;;;;34.10;20.15;;;;;;;;;;5077153;28;20071;-85
2021/12/27 00:16:41;;;;;;;35.30;21.02;;;;;;;;;;5095221;28;20065;-85
2021/12/27 00:19:08;;;;;;;29.70;19.00;;;;;;;;;;5096887;28;20044;-85
2021/12/27 00:21:35;;;;;;;33.22;19.20;;;;;;;;;;5082774;28;20055;-85
2021/12/27 00:24:01;;;;;;;35.75;21.30;;;;;;;;;;5087748;28;20520;-85
2021/12/27 00:26:27;;;;;;;32.92;20.33;;;;;;;;;;5091146;28;20096;-86
2021/12/27 00:28:53;;;;;;;36.45;19.90;;;;;;;;;;5093760;28;20498;-85
2021/12/27 00:31:19;;;;;;;35.45;21.98;;;;;;;;;;5094262;28;20036;-85
2021/12/27 00:33:45;;;;;;;34.08;20.52;;;;;;;;;;5092659;28;20048;-84
2021/12/27 00:36:11;;;;;;;34.20;19.83;;;;;;;;;;5096039;28;20116;-85
2021/12/27 00:38:37;;;;;;;37.28;20.98;;;;;;;;;;5096192;28;20105;-85
2021/12/27 00:41:03;;;;;;;32.58;20.10;;;;;;;;;;5094431;28;20047;-86
2021/12/27 00:43:29;;;;;;;36.50;20.98;;;;;;;;;;5085523;28;20040;-84
2021/12/27 00:45:55;;;;;;;36.08;20.98;;;;;;;;;;5080862;28;20734;-83
2021/12/27 00:48:21;;;;;;;37.88;20.65;;;;;;;;;;5079802;28;20040;-83
2021/12/27 00:50:47;;;;;;;35.05;20.75;;;;;;;;;;5098761;28;20094;-83
2021/12/27 00:53:14;;;;;;;36.42;21.63;;;;;;;;;;5099289;28;20422;-83
2021/12/27 00:55:40;;;;;;;37.38;21.38;;;;;;;;;;5080214;28;20462;-83
2021/12/27 00:58:06;;;;;;;34.30;20.10;;;;;;;;;;5096027;28;20048;-83
2021/12/27 01:00:32;;;;;;;36.47;21.42;;;;;;;;;;5075361;28;20059;-83
2021/12/27 01:02:58;;;;;;;37.90;21.90;;;;;;;;;;5059208;28;20080;-84
2021/12/27 01:05:25;;;;;;;38.80;21.98;;;0.10;99.90;;;;;;5075271;28;20123;-83
2021/12/27 01:07:52;;;;;;;36.22;21.65;;;0.00;99.90;;;;;;5075157;28;20044;-84
2021/12/27 01:13:19;;;;;;;33.92;20.85;;;;;;;;;;5076255;28;20054;-83
2021/12/27 01:15:48;;;;;;;37.47;21.55;;;;;;;;;;5058184;28;20040;-83
2021/12/27 01:18:16;;;;;;;37.15;21.33;;;0.00;99.90;;;;;;5075144;28;20053;-83
2021/12/27 01:20:43;;;;;;;34.92;21.88;;;;;;;;;;5058712;28;20422;-84
2021/12/27 01:23:09;;;;;;;38.10;21.85;;;;;;;;;;5058790;28;20402;-84
2021/12/27 01:25:35;;;;;;;35.50;20.80;;;;;;;;;;5075360;28;20051;-84
2021/12/27 01:28:01;;;;;;;37.10;22.05;;;;;;;;;;5075127;28;20075;-83
2021/12/27 01:30:28;;;;;;;38.50;22.38;;;;;;;;;;5058461;28;20040;-83
2021/12/27 01:33:00;;;;;;;36.22;20.90;;;;;;;;;;5057716;28;20052;-83
2021/12/27 01:35:26;;;;;;;37.45;21.48;;;;;;;;;;5057237;28;20083;-84
2021/12/27 01:37:53;;;;;;;36.85;22.08;;;0.00;99.90;;;;;;5057760;28;20176;-84
2021/12/27 01:40:23;;;;;;;39.05;22.02;;;-0.10;99.90;;;;;;5074621;28;20059;-84
2021/12/27 01:43:09;;;;;;;36.22;21.45;;;-0.10;99.90;;;;;;5057964;28;20071;-84
2021/12/27 01:45:43;;;;;;;38.25;22.67;;;0.00;99.90;;;;;;5056911;28;20037;-84
2021/12/27 01:48:10;;;;;;;38.70;22.05;;;0.00;99.90;;;;;;5074295;28;20057;-84
2021/12/27 01:50:41;;;;;;;37.70;21.75;;;0.00;99.90;;;;;;5074276;28;20049;-84
2021/12/27 01:53:12;;;;;;;37.42;21.48;;;0.00;99.90;;;;;;5057849;28;20045;-84
2021/12/27 01:55:39;;;;;;;38.17;22.58;;;;;;;;;;5073648;28;20061;-84
2021/12/27 01:58:05;;;;;;;38.17;22.05;;;0.00;99.90;;;;;;5057019;28;20048;-84
2021/12/27 02:00:32;;;;;;;35.60;21.80;;;-0.10;99.90;;;;;;5076688;28;20052;-84
2021/12/27 02:02:58;;;;;;;37.65;23.05;;;;;;;;;;5076891;28;20058;-84
2021/12/27 02:05:25;;;;;;;39.35;23.73;;;;;;;;;;5076647;28;20048;-84
2021/12/27 02:07:51;;;;;;;35.97;22.95;;;;;;;;;;5077018;28;20060;-83
2021/12/27 02:10:17;;;;;;;38.97;22.88;;;;;;;;;;5094360;28;20048;-84
2021/12/27 02:12:46;;;;;;;39.15;22.20;;;;;;;;;;5076812;28;20055;-84
2021/12/27 02:15:12;;;;;;;38.20;22.77;;;0.00;99.90;;;;;;5076291;28;20054;-84
2021/12/27 02:17:43;;;;;;;40.22;23.98;;;0.00;99.90;;;;;;5093722;28;20052;-84
2021/12/27 02:20:17;;;;;;;39.50;23.52;;;0.00;99.90;;;;;;5076632;28;20047;-84
2021/12/27 02:22:44;;;;;;;37.88;22.60;;;;;;;;;;5093647;28;20055;-84
2021/12/27 02:25:11;;;;;;;38.90;23.23;;;0.00;99.90;;;;;;5076715;28;20079;-84
2021/12/27 02:27:37;;;;;;;36.20;21.98;;;;;;;;;;5093803;28;20044;-84
2021/12/27 02:30:07;;;;;;;38.72;22.70;;;0.10;99.90;;;;;;5076521;28;20055;-84
2021/12/27 02:32:33;;;;;;;40.85;23.48;;;;;;;;;;5077177;28;20087;-84
2021/12/27 02:34:59;;;;;;;39.65;23.58;;;;;;;;;;5076558;28;20052;-84
2021/12/27 02:37:25;;;;;;;36.10;21.75;;;;;;;;;;5077270;28;20046;-84
2021/12/27 02:39:51;;;;;;;37.25;22.98;;;;;;;;;;5078375;28;20040;-84
2021/12/27 02:42:19;;;;;;;36.33;22.92;;;0.00;99.90;;;;;;5077649;28;20063;-84
2021/12/27 02:44:45;;;;;;;38.67;22.63;;;;;;;;;;5077951;28;20044;-84
2021/12/27 02:47:14;;;;;;;40.22;24.05;;;0.00;99.90;;;;;;5078182;28;20052;-84
2021/12/27 02:49:40;;;;;;;37.78;22.83;;;;;;;;;;5094842;28;20113;-84
2021/12/27 02:52:06;;;;;;;38.97;22.02;;;;;;;;;;5078025;28;20052;-84
2021/12/27 02:54:33;;;;;;;36.35;22.20;;;;;;;;;;5077767;28;20570;-84
2021/12/27 02:56:59;;;;;;;42.92;24.15;;;;;;;;;;5096760;28;20052;-84
2021/12/27 02:59:25;;;;;;;40.88;23.40;;;;;;;;;;5093919;28;20055;-84
2021/12/27 03:01:51;;;;;;;39.60;24.02;;;;;;;;;;5074411;28;20057;-84
2021/12/27 03:04:17;;;;;;;37.83;22.85;;;;;;;;;;5057577;28;20620;-84
2021/12/27 03:06:43;;;;;;;38.00;23.52;;;;;;;;;;5073326;28;20498;-84
2021/12/27 03:09:09;;;;;;;37.53;22.90;;;;;;;;;;5056513;28;20414;-84
2021/12/27 03:11:35;;;;;;;42.88;23.92;;;;;;;;;;5056784;28;20048;-84
2021/12/27 03:14:01;;;;;;;38.38;23.05;;;;;;;;;;5056275;28;20051;-83
2021/12/27 03:16:27;;;;;;;41.40;23.67;;;;;;;;;;5055965;28;20052;-84
2021/12/27 03:18:54;;;;;;;36.25;22.77;;;0.20;99.90;;;;;;5055620;28;20048;-83
2021/12/27 03:21:20;;;;;;;42.17;22.85;;;0.10;99.90;;;;;;5071404;28;20457;-84
2021/12/27 03:23:48;;;;;;;39.50;23.35;;;0.10;99.90;;;;;;5055552;28;20040;-84
2021/12/27 03:26:14;;;;;;;39.78;24.25;;;;;;;;;;5072158;28;20079;-84
2021/12/27 03:28:41;;;;;;;39.20;22.95;;;0.20;99.90;;;;;;5073359;28;20049;-84
2021/12/27 03:31:09;;;;;;;38.83;23.95;;;0.00;99.90;;;;;;5055958;28;20105;-83
2021/12/27 03:33:35;;;;;;;39.30;23.45;;;;;;;;;;5072506;28;20040;-84
2021/12/27 03:36:03;;;;;;;40.72;23.48;;;;;;;;;;5072043;28;20101;-84
2021/12/27 03:38:55;;;;;;;39.67;23.73;;;0.10;99.90;;;;;;5055556;28;20051;-84
2021/12/27 03:41:24;;;;;;;40.33;24.83;;;0.10;99.90;;;;;;5051189;28;20053;-84
2021/12/27 03:43:50;;;;;;;40.10;24.67;;;;;;;;;;5072211;28;20483;-83
2021/12/27 03:46:16;;;;;;;39.92;23.77;;;0.10;99.90;;;;;;5072794;28;20892;-84
2021/12/27 03:48:42;;;;;;;37.53;23.10;;;;;;;;;;5071723;28;20055;-84
2021/12/27 03:51:09;;;;;;;39.50;23.27;;;;;;;;;;5054988;28;20145;-83
2021/12/27 03:53:36;;;;;;;38.25;22.95;;;;;;;;;;5055194;28;20063;-84
2021/12/27 03:56:02;;;;;;;39.10;24.10;;;;;;;;;;5071135;28;20053;-84
2021/12/27 03:58:33;;;;;;;45.72;24.77;;;;;;;;;;5071714;28;20041;-84
2021/12/27 04:01:14;;;;;;;41.33;24.83;;;;;;;;;;5062347;28;20375;-84
2021/12/27 04:03:41;;;;;;;40.15;24.10;;;0.20;99.90;;;;;;5074926;28;20490;-84
2021/12/27 04:06:07;;;;;;;43.03;24.35;;;;;;;;;;5091325;28;20406;-84
2021/12/27 04:08:33;;;;;;;40.28;24.23;;;;;;;;;;5092263;28;20506;-84
2021/12/27 04:10:59;;;;;;;36.83;23.38;;;;;;;;;;5097746;28;20432;-84
2021/12/27 04:13:25;;;;;;;39.30;23.50;;;;;;;;;;5081388;28;20040;-84
2021/12/27 04:15:52;;;;;;;39.35;24.23;;;;;;;;;;5081750;28;20155;-84
2021/12/27 04:18:18;;;;;;;41.63;24.85;;;;;;;;;;5097685;28;20044;-84
2021/12/27 04:20:45;;;;;;;41.00;24.70;;;;;;;;;;5098230;28;20090;-84
2021/12/27 04:23:11;;;;;;;41.72;24.83;;;;;;;;;;5081288;28;20101;-84
2021/12/27 04:25:37;;;;;;;42.65;24.10;;;;;;;;;;5080894;28;20126;-85
2021/12/27 04:28:03;;;;;;;41.88;25.70;;;;;;;;;;5097747;28;20043;-84
2021/12/27 04:30:29;;;;;;;39.83;23.90;;;;;;;;;;5097767;28;20463;-84
2021/12/27 04:32:55;;;;;;;44.00;25.08;;;;;;;;;;5081228;28;20044;-84
2021/12/27 04:35:21;;;;;;;41.53;25.02;;;;;;;;;;5081142;28;20439;-84
2021/12/27 04:37:48;;;;;;;39.85;24.55;;;0.30;99.90;;;;;;5099160;28;20056;-84
2021/12/27 04:40:16;;;;;;;41.83;24.58;;;0.30;99.90;;;;;;5081325;28;20040;-84
2021/12/27 04:42:47;;;;;;;41.28;24.80;;;0.20;99.90;;;;;;5081125;28;20036;-84
2021/12/27 04:45:14;;;;;;;45.20;24.38;;;;;;;;;;5097822;28;20052;-84
2021/12/27 04:47:41;;;;;;;41.67;25.77;;;;;;;;;;5080379;28;20040;-84
2021/12/27 04:50:07;;;;;;;40.10;24.80;;;;;;;;;;5080642;28;20501;-84
2021/12/27 04:52:33;;;;;;;40.17;25.25;;;;;;;;;;5097912;28;20051;-84
2021/12/27 04:54:59;;;;;;;41.33;25.25;;;;;;;;;;5081167;28;20079;-84
2021/12/27 04:57:25;;;;;;;39.17;23.48;;;;;;;;;;5081068;28;20051;-84
2021/12/27 04:59:51;;;;;;;41.22;25.17;;;;;;;;;;5097411;28;20036;-84
2021/12/27 05:02:17;;;;;;;43.22;25.05;;;;;;;;;;5074885;28;20060;-84
2021/12/27 05:04:43;;;;;;;43.40;24.52;;;;;;;;;;5060154;28;20081;-84
2021/12/27 05:07:09;;;;;;;41.17;23.65;;;;;;;;;;5060502;28;20161;-84
2021/12/27 05:09:35;;;;;;;41.80;25.35;;;;;;;;;;5077491;28;20108;-84
2021/12/27 05:12:01;;;;;;;43.80;25.55;;;;;;;;;;5077303;28;20123;-84
2021/12/27 05:14:28;;;;;;;40.10;24.13;;;;;;;;;;5061204;28;20090;-83
2021/12/27 05:16:54;;;;;;;39.15;25.10;;;;;;;;;;5060693;28;20062;-84
2021/12/27 05:19:20;;;;;;;45.72;26.63;;;;;;;;;;5078195;28;20044;-84
2021/12/27 05:21:46;;;;;;;43.05;26.65;;;;;;;;;;5057879;28;20083;-84
2021/12/27 05:24:13;;;;;;;42.35;26.15;;;;;;;;;;5058153;28;20044;-84
2021/12/27 05:26:39;;;;;;;43.63;25.35;;;0.30;99.90;;;;;;5057275;28;20051;-84
2021/12/27 05:29:05;;;;;;;43.22;25.58;;;;;;;;;;5057265;28;20497;-85
2021/12/27 05:31:33;;;;;;;42.88;26.73;;;;;;;;;;5073641;28;20060;-84
2021/12/27 05:33:59;;;;;;;41.67;25.73;;;;;;;;;;5057783;28;20048;-84
2021/12/27 05:36:25;;;;;;;46.55;26.75;;;;;;;;;;5058098;28;20048;-85
2021/12/27 05:38:51;;;;;;;42.85;25.73;;;;;;;;;;5074434;28;20044;-84
2021/12/27 05:41:20;;;;;;;41.00;25.65;;;;;;;;;;5058343;28;20281;-83
2021/12/27 05:43:46;;;;;;;41.05;25.50;;;;;;;;;;5057427;28;20041;-83
2021/12/27 05:46:12;;;;;;;42.85;24.90;;;;;;;;;;5074111;28;20140;-83
2021/12/27 05:48:38;;;;;;;44.67;26.65;;;;;;;;;;5057170;28;20057;-83
2021/12/27 05:51:05;;;;;;;41.00;25.17;;;0.40;99.90;;;;;;5073981;28;20041;-84
2021/12/27 05:53:31;;;;;;;42.45;25.90;;;;;;;;;;5075145;28;20482;-84
2021/12/27 05:55:57;;;;;;;41.08;25.42;;;;;;;;;;5057100;28;20094;-84
2021/12/27 05:58:25;;;;;;;42.80;25.98;;;;;;;;;;5057190;28;20052;-84
2021/12/27 06:00:51;;;;;;;41.00;25.33;;;;;;;;;;5045462;28;20055;-83
2021/12/27 06:03:17;;;;;;;46.00;26.40;;;;;;;;;;5094315;28;20102;-83
2021/12/27 06:05:43;;;;;;;44.75;25.90;;;;;;;;;;5094203;28;20040;-84
2021/12/27 06:08:09;;;;;;;45.72;25.70;;;;;;;;;;5076697;28;20139;-83
2021/12/27 06:10:36;;;;;;;43.10;26.52;;;;;;;;;;5095241;28;20052;-84
2021/12/27 06:13:02;;;;;;;41.78;26.13;;;;;;;;;;5077599;28;20044;-84
2021/12/27 06:15:28;;;;;;;43.45;26.25;;;;;;;;;;5094165;28;20091;-84
2021/12/27 06:17:54;;;;;;;46.45;27.30;;;;;;;;;;5076742;28;20455;-84
2021/12/27 06:20:20;;;;;;;43.22;25.23;;;;;;;;;;5094079;28;20051;-85
2021/12/27 06:22:54;;;;;;;50.47;26.80;;;0.50;99.90;;;;;;5077262;28;20466;-85
2021/12/27 06:25:20;;;;;;;46.03;26.77;;;;;;;;;;5076551;28;20490;-84
2021/12/27 06:27:46;;;;;;;46.72;26.98;;;;;;;;;;5093571;28;20509;-84
2021/12/27 06:30:13;;;;;;;44.45;26.98;;;0.40;99.90;;;;;;5076817;28;20047;-83
2021/12/27 06:32:40;;;;;;;48.22;28.17;;;;;;;;;;5093499;28;20055;-84
2021/12/27 06:35:07;;;;;;;47.50;27.92;;;0.40;99.90;;;;;;5076419;28;20075;-84
2021/12/27 06:37:33;;;;;;;49.78;28.67;;;;;;;;;;5093181;28;20048;-84
2021/12/27 06:40:00;;;;;;;50.60;28.48;;;;;;;;;;5092784;28;20137;-84
2021/12/27 06:42:26;;;;;;;48.00;28.27;;;;;;;;;;5094260;28;20120;-84
2021/12/27 06:44:52;;;;;;;46.75;28.90;;;;;;;;;;5076118;28;20125;-83
2021/12/27 06:47:18;;;;;;;48.22;27.98;;;;;;;;;;5076208;28;20105;-84
2021/12/27 06:49:44;;;;;;;50.55;28.20;;;;;;;;;;5076558;28;20048;-84
2021/12/27 06:52:13;;;;;;;50.30;29.30;;;;;;;;;;5092837;28;20143;-84
2021/12/27 06:54:42;;;;;;;46.67;28.50;;;;;;;;;;5084254;28;20440;-84
2021/12/27 06:57:09;;;;;;;45.42;27.73;;;0.50;99.90;;;;;;5092357;28;20055;-84
2021/12/27 06:59:35;;;;;;;46.92;27.67;;;;;;;;;;5076083;28;20429;-85
2021/12/27 07:02:01;;;;;;;49.88;28.15;;;;;;;;;;5107816;28;20089;-84
2021/12/27 07:04:27;;;;;;;47.70;26.90;;;;;;;;;;5079549;28;20048;-84
2021/12/27 07:06:53;;;;;;;48.80;28.08;;;;;;;;;;5079412;28;20055;-83
2021/12/27 07:09:20;;;;;;;44.80;27.52;;;;;;;;;;5078781;28;20463;-84
2021/12/27 07:11:46;;;;;;;54.60;27.45;;;;;;;;;;5096215;28;20047;-84
2021/12/27 07:14:12;;;;;;;45.75;27.33;;;;;;;;;;5080447;28;20044;-84
2021/12/27 07:16:38;;;;;;;47.25;28.23;;;;;;;;;;5078490;28;20493;-84
2021/12/27 07:19:04;;;;;;;48.00;28.73;;;;;;;;;;5078716;28;20043;-84
2021/12/27 07:21:30;;;;;;;42.53;28.10;;;;;;;;;;5095685;28;20055;-84
2021/12/27 07:23:56;;;;;;;49.83;28.08;;;;;;;;;;5078530;28;20106;-84
2021/12/27 07:26:22;;;;;;;50.78;27.88;;;;;;;;;;5078300;28;20051;-84
2021/12/27 07:28:49;;;;;;;48.80;27.60;;;;;;;;;;5078412;28;20053;-84
2021/12/27 07:31:15;;;;;;;46.42;27.77;;;;;;;;;;5095425;28;20066;-84
2021/12/27 07:33:41;;;;;;;54.95;28.08;;;0.70;99.90;;;;;;5078508;28;20101;-84
2021/12/27 07:36:10;;;;;;;51.22;28.27;;;0.70;99.90;;;;;;5078328;28;20122;-84
2021/12/27 07:38:36;;;;;;;49.55;28.42;;;;;;;;;;5095064;28;20046;-84
2021/12/27 07:41:02;;;;;;;50.25;28.90;;;;;;;;;;5078056;28;20130;-83
2021/12/27 07:43:28;;;;;;;51.22;29.67;;;;;;;;;;5090961;28;20482;-84
2021/12/27 07:45:54;;;;;;;53.35;28.25;;;;;;;;;;5112361;28;20126;-82
2021/12/27 07:48:20;;;;;;;50.20;28.40;;;;;;;;;;5078133;28;20043;-84
2021/12/27 07:50:46;;;;;;;53.08;28.83;;;;;;;;;;5079014;28;20073;-83
2021/12/27 07:53:12;;;;;;;54.53;30.58;;;;;;;;;;5083335;27;20051;-83
2021/12/27 07:55:38;;;;;;;50.90;29.30;;;;;;;;;;5132982;27;20055;-83
2021/12/27 07:58:04;;;;;;;53.20;28.13;;;;;;;;;;5097184;28;20407;-83
2021/12/27 08:00:32;;;;;;;54.33;29.58;;;;;;;;;;5132600;27;20560;-84
2021/12/27 08:02:58;;;;;;;50.50;28.13;;;;;;;;;;5097163;27;20051;-83
2021/12/27 08:05:24;;;;;;;55.85;29.25;;;;;;;;;;5097129;27;20046;-84
2021/12/27 08:07:50;;;;;;;56.17;28.48;;;;;;;;;;5113512;28;20067;-84
2021/12/27 08:10:16;;;;;;;57.67;30.67;;;;;;;;;;5097282;28;20051;-83
2021/12/27 08:12:42;;;;;;;60.22;30.08;;;;;;;;;;5114406;28;20054;-84
2021/12/27 08:15:10;;;;;;;59.65;29.45;;;1.10;99.90;;;;;;5096464;28;20055;-84
2021/12/27 08:17:36;;;;;;;60.80;29.83;;;;;;;;;;5096951;28;20047;-84
2021/12/27 08:20:04;;;;;;;58.80;30.23;;;1.00;99.90;;;;;;5114065;28;20428;-84
2021/12/27 08:22:30;;;;;;;63.88;30.27;;;;;;;;;;5114738;28;20055;-83
2021/12/27 08:24:56;;;;;;;64.22;30.60;;;;;;;;;;5096808;28;20059;-83
2021/12/27 08:27:23;;;;;;;63.95;32.80;;;1.00;99.90;;;;;;5097180;28;20175;-82
2021/12/27 08:29:49;;;;;;;66.07;31.65;;;;;;;;;;5113887;28;20065;-84
2021/12/27 08:32:16;;;;;;;64.95;31.00;;;;;;;;;;5114094;28;20059;-83
2021/12/27 08:34:42;;;;;;;58.33;29.38;;;;;;;;;;5097320;28;20497;-84
2021/12/27 08:37:09;;;;;;;65.45;32.47;;;1.20;99.90;;;;;;5097737;28;20047;-83
2021/12/27 08:39:35;;;;;;;67.43;34.25;;;;;;;;;;5097030;28;20051;-84
2021/12/27 08:42:02;;;;;;;71.43;32.08;;;1.10;99.90;;;;;;5114550;28;20051;-84
2021/12/27 08:44:27;;;;;;;62.97;30.90;;;;;;;;;;5114202;28;20051;-84
2021/12/27 08:46:54;;;;;;;70.28;33.45;;;;;;;;;;5114304;28;20047;-83
2021/12/27 08:49:20;;;;;;;75.72;31.85;;;;;;;;;;5113896;28;20132;-84
2021/12/27 08:51:46;;;;;;;70.43;32.63;;;;;;;;;;5097921;28;20061;-84
2021/12/27 08:54:13;;;;;;;75.63;35.30;;;;;;;;;;5132622;28;20048;-84
2021/12/27 08:56:39;;;;;;;72.20;33.88;;;;;;;;;;5115804;27;20043;-84
2021/12/27 08:59:08;;;;;;;75.88;34.22;;;;;;;;;;5117982;27;20402;-84
2021/12/27 09:01:34;;;;;;;84.95;37.65;;;;;;;;;;5080402;28;20047;-83
2021/12/27 09:04:01;;;;;;;80.35;34.95;;;;;;;;;;5081296;28;20470;-84
2021/12/27 09:06:27;;;;;;;87.40;36.55;;;;;;;;;;5080409;28;20512;-84
2021/12/27 09:08:53;;;;;;;81.95;34.85;;;;;;;;;;5081370;28;20066;-85
2021/12/27 09:11:19;;;;;;;87.13;35.03;;;;;;;;;;5099301;27;20397;-84
2021/12/27 09:13:45;;;;;;;98.28;41.92;;;;;;;;;;5099055;28;20475;-84
2021/12/27 09:16:13;;;;;;;101.90;37.67;;;;;;;;;;5080609;28;20505;-84
2021/12/27 09:18:39;;;;;;;105.07;39.13;;;;;;;;;;5116221;28;20052;-84
2021/12/27 09:21:06;;;;;;;106.03;37.05;;;;;;;;;;5080321;28;20055;-84
2021/12/27 09:23:32;;;;;;;126.20;46.78;;;;;;;;;;5097449;28;20087;-84
2021/12/27 09:25:59;;;;;;;113.35;39.83;;;;;;;;;;5080129;28;20058;-84
2021/12/27 09:28:25;;;;;;;138.55;44.88;;;;;;;;;;5097414;28;20051;-84
2021/12/27 09:30:51;;;;;;;110.75;39.60;;;;;;;;;;5096664;28;20431;-83
2021/12/27 09:33:17;;;;;;;132.05;40.92;;;;;;;;;;5096338;28;20135;-83
2021/12/27 09:35:43;;;;;;;115.80;39.47;;;;;;;;;;5097513;28;20131;-83
2021/12/27 09:38:11;;;;;;;141.60;48.75;;;;;;;;;;5097114;28;20119;-83
2021/12/27 09:40:37;;;;;;;142.25;47.33;;;;;;;;;;5080128;28;20524;-83
2021/12/27 09:43:03;;;;;;;138.40;42.15;;;;;;;;;;5097385;28;20077;-84
2021/12/27 09:45:29;;;;;;;160.30;50.42;;;;;;;;;;5080500;28;20047;-83
2021/12/27 09:47:55;;;;;;;161.65;45.72;;;;;;;;;;5080181;28;20127;-84
2021/12/27 09:50:28;;;;;;;176.30;53.60;;;1.60;99.90;;;;;;5096659;28;20109;-83
2021/12/27 09:52:55;;;;;;;157.73;49.63;;;;;;;;;;5096996;28;20743;-84
2021/12/27 09:55:21;;;;;;;188.63;47.60;;;;;;;;;;5080139;28;20058;-84
2021/12/27 09:57:47;;;;;;;175.63;55.63;;;;;;;;;;5103502;27;20404;-84
2021/12/27 10:00:13;;;;;;;137.05;48.72;;;;;;;;;;5100614;27;20047;-83
2021/12/27 10:02:40;;;;;;;188.88;54.42;;;;;;;;;;5100110;27;20054;-83
2021/12/27 10:05:06;;;;;;;198.43;48.35;;;;;;;;;;5117929;27;20043;-83
2021/12/27 10:07:41;;;;;;;170.35;50.65;;;1.80;99.90;;;;;;5118780;27;20059;-84
2021/12/27 10:10:07;;;;;;;181.68;53.58;;;;;;;;;;5099702;28;20047;-84
2021/12/27 10:12:33;;;;;;;182.43;55.72;;;;;;;;;;5117980;28;20097;-83
2021/12/27 10:15:07;;;;;;;184.00;49.60;;;1.90;99.90;;;;;;5103882;28;20057;-84
2021/12/27 10:17:37;;;;;;;188.35;54.88;;;1.80;99.90;;;;;;5109599;28;20401;-83
2021/12/27 10:20:15;;;;;;;223.73;60.40;;;1.90;99.90;;;;;;5099246;27;20134;-85
2021/12/27 10:22:46;;;;;;;176.77;51.40;;;2.00;99.90;;;;;;5133634;28;20074;-83
2021/12/27 10:25:23;;;;;;;209.32;59.03;;;1.90;99.90;;;;;;5097378;28;20044;-84
2021/12/27 10:27:53;;;;;;;187.25;57.22;;;2.00;99.90;;;;;;5096721;28;20055;-84
2021/12/27 10:30:26;;;;;;;204.27;58.53;;;1.90;99.90;;;;;;5115029;28;20095;-85
2021/12/27 10:33:02;;;;;;;204.13;56.83;;;;;;;;;;5115830;28;20043;-84
2021/12/27 10:35:49;;;;;;;163.32;54.17;;;1.90;99.90;;;;;;5104526;28;20123;-84
2021/12/27 10:38:20;;;;;;;230.52;59.65;;;2.00;99.90;;;;;;5103279;28;20051;-85
2021/12/27 10:40:50;;;;;;;209.88;56.33;;;;;;;;;;5103169;28;20043;-84
2021/12/27 10:43:31;;;;;;;248.25;62.78;;;1.90;99.90;;;;;;5108151;28;20059;-84
2021/12/27 10:46:05;;;;;;;209.23;57.55;;;2.00;99.90;;;;;;5081716;28;20052;-84
2021/12/27 10:48:36;;;;;;;216.57;59.88;;;2.10;99.90;;;;;;5081209;28;20058;-84
2021/12/27 10:51:03;;;;;;;244.90;58.50;;;1.90;99.90;;;;;;5097487;28;20035;-84
2021/12/27 10:53:42;;;;;;;191.98;57.67;;;2.10;99.90;;;;;;5096250;28;20139;-85
2021/12/27 10:56:08;;;;;;;237.55;59.88;;;;;;;;;;5096463;27;20042;-85
2021/12/27 10:58:38;;;;;;;191.45;56.70;;;;;;;;;;5082628;28;20127;-85
2021/12/27 11:01:08;;;;;;;228.85;63.00;;;2.10;99.90;;;;;;5077732;28;20463;-85
2021/12/27 11:03:39;;;;;;;221.10;58.38;;;2.10;99.90;;;;;;5077980;28;20398;-84
2021/12/27 11:06:07;;;;;;;212.27;59.65;;;2.00;99.90;;;;;;5076475;28;20055;-85
2021/12/27 11:08:35;;;;;;;240.82;63.53;;;2.20;99.90;;;;;;5079008;28;20066;-85
2021/12/27 11:11:02;;;;;;;235.70;59.88;;;2.20;99.90;;;;;;5096827;27;20042;-85
2021/12/27 11:13:29;;;;;;;276.38;65.43;;;;;;;;;;5078130;28;20409;-84
2021/12/27 11:15:56;;;;;;;269.73;65.55;;;2.30;99.90;;;;;;5076708;28;20043;-85
2021/12/27 11:18:22;;;;;;;219.23;59.58;;;;;;;;;;5076469;28;20134;-84
2021/12/27 11:20:53;;;;;;;237.13;61.20;;;2.30;99.90;;;;;;5077014;28;20163;-84
2021/12/27 11:23:21;;;;;;;244.50;63.17;;;2.20;99.90;;;;;;5077169;28;20040;-84
2021/12/27 11:25:47;;;;;;;263.98;63.60;;;;;;;;;;5113826;28;20043;-84
2021/12/27 11:28:26;;;;;;;239.93;61.95;;;;;;;;;;5079031;28;20044;-84
2021/12/27 11:30:52;;;;;;;269.83;64.10;;;;;;;;;;5078623;28;20055;-84
2021/12/27 11:33:20;;;;;;;263.38;62.17;;;;;;;;;;5079392;28;20052;-84
2021/12/27 11:35:55;;;;;;;280.55;63.63;;;2.40;99.90;;;;;;5077891;28;20048;-84
2021/12/27 11:38:34;;;;;;;235.00;61.22;;;2.30;99.90;;;;;;5077946;28;20054;-84
2021/12/27 11:41:24;;;;;;;230.40;59.83;;;2.30;99.90;;;;;;5079843;28;20079;-84
2021/12/27 11:43:53;;;;;;;236.05;59.67;;;2.40;99.90;;;;;;5083135;28;20040;-85
2021/12/27 11:46:20;;;;;;;211.23;57.00;;;2.50;99.90;;;;;;5095301;28;20070;-85
2021/12/27 11:48:49;;;;;;;202.65;56.80;;;2.40;99.90;;;;;;5078524;28;20084;-84
2021/12/27 11:51:36;;;;;;;204.48;57.97;;;2.40;99.90;;;;;;5077987;28;20083;-84
2021/12/27 11:54:04;;;;;;;218.85;59.05;;;2.50;99.90;;;;;;5094266;28;20063;-84
2021/12/27 11:56:39;;;;;;;212.48;56.22;;;2.50;99.90;;;;;;5077787;28;20105;-85
2021/12/27 11:59:26;;;;;;;202.97;56.43;;;2.40;99.90;;;;;;5113302;28;20043;-84
2021/12/27 12:01:53;;;;;;;193.57;55.10;;;2.50;99.90;;;;;;5091521;28;20060;-84
2021/12/27 12:04:56;;;;;;;212.10;55.65;;;2.60;99.90;;;;;;5074757;28;20050;-84
2021/12/27 12:07:34;;;;;;;180.90;54.72;;;2.70;99.90;;;;;;5022617;28;20048;-84
2021/12/27 12:10:16;;;;;;;191.45;55.00;;;2.60;99.90;;;;;;5074826;28;20044;-84
2021/12/27 12:12:43;;;;;;;168.15;52.10;;;;;;;;;;5092173;28;20186;-84
2021/12/27 12:15:09;;;;;;;175.70;54.35;;;;;;;;;;5074104;28;20051;-84
2021/12/27 12:17:52;;;;;;;168.23;52.22;;;2.70;99.90;;;;;;5075201;28;20512;-84
2021/12/27 12:20:27;;;;;;;163.80;50.83;;;2.80;99.90;;;;;;5077643;28;20157;-84
2021/12/27 12:23:09;;;;;;;157.55;49.42;;;2.80;99.90;;;;;;5095981;28;20083;-84
2021/12/27 12:25:36;;;;;;;158.80;49.30;;;2.90;99.90;;;;;;5078176;28;20084;-85
2021/12/27 12:28:03;;;;;;;142.20;47.45;;;;;;;;;;5077910;28;20051;-85
2021/12/27 12:30:35;;;;;;;130.82;46.22;;;2.90;99.90;;;;;;5077869;28;20063;-85
2021/12/27 12:33:01;;;;;;;129.30;45.45;;;;;;;;;;5081873;28;20059;-85
2021/12/27 12:35:44;;;;;;;124.50;45.17;;;2.80;99.90;;;;;;5080086;28;20109;-85
2021/12/27 12:38:21;;;;;;;125.85;45.28;;;3.00;99.90;;;;;;5078735;28;20398;-85
2021/12/27 12:41:03;;;;;;;120.00;44.17;;;3.00;99.90;;;;;;5077949;28;20079;-85
2021/12/27 12:43:49;;;;;;;117.13;43.75;;;3.10;99.90;;;;;;5078119;28;20096;-85
2021/12/27 12:46:22;;;;;;;100.95;41.65;;;;;;;;;;5094619;28;20048;-85
2021/12/27 12:48:57;;;;;;;102.20;40.53;;;;;;;;;;5077964;28;20044;-85
2021/12/27 12:51:51;;;;;;;98.32;39.88;;;3.20;99.90;;;;;;5094940;28;20047;-85
2021/12/27 12:54:23;;;;;;;93.25;38.28;;;3.30;99.90;;;;;;5077964;28;20488;-85
2021/12/27 12:57:21;;;;;;;87.88;38.10;;;3.30;99.90;;;;;;5095615;28;20048;-85
2021/12/27 12:59:56;;;;;;;93.43;36.90;;;3.40;99.90;;;;;;5074363;28;20060;-85
2021/12/27 13:02:34;;;;;;;82.03;36.17;;;3.40;99.90;;;;;;5077395;28;20410;-85
2021/12/27 13:05:05;;;;;;;82.55;36.28;;;3.50;99.90;;;;;;5078171;28;20047;-85
2021/12/27 13:07:32;;;;;;;86.95;35.90;;;;;;;;;;5078657;28;20113;-85
2021/12/27 13:09:58;;;;;;;75.72;35.70;;;;;;;;;;5097608;28;20056;-85
2021/12/27 13:12:26;;;;;;;71.35;32.20;;;3.40;99.90;;;;;;5079365;28;20506;-85
2021/12/27 13:14:53;;;;;;;69.30;33.30;;;3.50;99.90;;;;;;5079012;28;20044;-84
2021/12/27 13:17:22;;;;;;;75.57;34.00;;;3.40;99.90;;;;;;5097743;28;20047;-84
2021/12/27 13:19:59;;;;;;;66.45;31.70;;;3.30;99.90;;;;;;5079923;28;20095;-84
2021/12/27 13:22:46;;;;;;;69.78;33.47;;;3.40;99.90;;;;;;5079870;28;20059;-83
2021/12/27 13:25:34;;;;;;;75.65;34.47;;;3.50;99.90;;;;;;5080334;28;20047;-84
2021/12/27 13:28:33;;;;;;;64.80;33.00;;;3.50;99.90;;;;;;5099786;28;20044;-84
2021/12/27 13:31:11;;;;;;;66.20;33.17;;;3.50;99.90;;;;;;5109192;28;20531;-84
2021/12/27 13:33:37;;;;;;;67.03;32.70;;;;;;;;;;5120581;28;20134;-85
2021/12/27 13:36:07;;;;;;;58.13;32.33;;;3.40;99.90;;;;;;5102390;28;20103;-85
2021/12/27 13:38:45;;;;;;;71.53;33.15;;;3.50;99.90;;;;;;5101791;28;20051;-85
2021/12/27 13:41:24;;;;;;;67.10;32.10;;;3.50;99.90;;;;;;5101908;28;20093;-84
2021/12/27 13:44:01;;;;;;;62.55;31.67;;;3.50;99.90;;;;;;5101640;28;20075;-84
2021/12/27 13:46:33;;;;;;;63.33;32.25;;;3.50;99.90;;;;;;5119513;28;20079;-84
2021/12/27 13:49:02;;;;;;;63.70;32.85;;;3.40;99.90;;;;;;5119403;28;20493;-84